Time;durP1;ratioP1;P1;durP2;ratioP2;P2;SDS_P1;SDS_P2;PMS_P1;PMS_P2;Temp;Humidity;BMP_temperature;BMP_pressure;BME280_temperature;BME280_humidity;BME280_pressure;Samples;Min_cycle;Max_cycle;Signal;HPM_P1;HPM_P2
2023/06/03 00:01:34;;;;;;;3.30;2.83;;;12.40;99.90;;;;;;4953873;28;20201;-67
2023/06/03 00:04:00;;;;;;;3.23;2.30;;;12.40;99.90;;;;;;4954104;29;20174;-67
2023/06/03 00:06:25;;;;;;;2.60;2.13;;;12.30;99.90;;;;;;4954118;29;20182;-66
2023/06/03 00:08:51;;;;;;;4.47;2.40;;;12.30;99.90;;;;;;4954126;29;20181;-67
2023/06/03 00:11:16;;;;;;;1.90;1.80;;;12.30;99.90;;;;;;4953312;28;20651;-67
2023/06/03 00:13:42;;;;;;;2.00;1.80;;;12.20;99.90;;;;;;4953860;29;20210;-68
2023/06/03 00:16:07;;;;;;;2.80;2.23;;;12.20;99.90;;;;;;4954063;29;20163;-68
2023/06/03 00:18:33;;;;;;;4.97;2.43;;;12.20;99.90;;;;;;4953923;29;20170;-67
2023/06/03 00:21:01;;;;;;;2.30;2.10;;;12.20;99.90;;;;;;4953503;28;20166;-67
2023/06/03 00:23:26;;;;;;;4.70;2.47;;;12.10;99.90;;;;;;4953971;29;20170;-68
2023/06/03 00:25:52;;;;;;;7.67;2.57;;;12.10;99.90;;;;;;4936472;29;20462;-68
2023/06/03 00:28:17;;;;;;;2.73;2.53;;;12.10;99.90;;;;;;4953734;29;20174;-68
2023/06/03 00:30:43;;;;;;;3.30;2.03;;;12.00;99.90;;;;;;4953469;29;20174;-68
2023/06/03 00:33:08;;;;;;;4.07;2.50;;;12.00;99.90;;;;;;4953671;28;20186;-67
2023/06/03 00:35:34;;;;;;;2.67;2.10;;;12.00;99.90;;;;;;4953696;29;20190;-68
2023/06/03 00:38:00;;;;;;;2.73;2.10;;;12.00;99.90;;;;;;4953801;29;20161;-67
2023/06/03 00:40:25;;;;;;;4.20;2.63;;;11.90;99.90;;;;;;4953564;29;20439;-68
2023/06/03 00:42:51;;;;;;;5.60;2.33;;;11.90;99.90;;;;;;4953545;28;20194;-68
2023/06/03 00:45:17;;;;;;;2.20;2.00;;;11.90;99.90;;;;;;4953884;29;20170;-68
2023/06/03 00:47:43;;;;;;;3.83;2.50;;;11.80;99.90;;;;;;4953641;29;20174;-68
2023/06/03 00:50:10;;;;;;;2.83;2.50;;;11.80;99.90;;;;;;4953923;29;20198;-68
2023/06/03 00:52:38;;;;;;;5.83;2.70;;;11.80;99.90;;;;;;4953018;28;20844;-68
2023/06/03 00:55:04;;;;;;;4.33;2.23;;;11.80;99.90;;;;;;4936199;29;20457;-68
2023/06/03 00:57:29;;;;;;;4.47;2.03;;;11.80;99.90;;;;;;4953485;29;20406;-67
2023/06/03 00:59:55;;;;;;;2.43;2.23;;;11.80;99.90;;;;;;4953608;29;20843;-68
2023/06/03 01:02:23;;;;;;;3.77;2.37;;;11.80;99.90;;;;;;4952783;28;20221;-67
2023/06/03 01:04:49;;;;;;;2.90;2.03;;;11.70;99.90;;;;;;4953335;29;20174;-67
2023/06/03 01:07:17;;;;;;;3.17;2.33;;;11.70;99.90;;;;;;4953422;29;20460;-68
2023/06/03 01:10:07;;;;;;;2.20;1.80;;;11.70;99.90;;;;;;4953602;29;20437;-68
2023/06/03 01:12:48;;;;;;;2.70;2.20;;;11.70;99.90;;;;;;4953100;28;20461;-68
2023/06/03 01:15:20;;;;;;;4.37;2.00;;;11.60;99.90;;;;;;4953377;29;20980;-67
2023/06/03 01:17:47;;;;;;;3.93;2.17;;;11.60;99.90;;;;;;4953407;29;20416;-68
2023/06/03 01:20:14;;;;;;;4.27;2.60;;;11.60;99.90;;;;;;4953495;29;20448;-68
2023/06/03 01:22:42;;;;;;;3.60;2.00;;;11.60;99.90;;;;;;4954471;28;20425;-68
2023/06/03 01:25:09;;;;;;;2.47;1.83;;;11.50;99.90;;;;;;4939694;29;20422;-67
2023/06/03 01:27:39;;;;;;;2.27;1.77;;;11.50;99.90;;;;;;4956775;29;20421;-67
2023/06/03 01:30:10;;;;;;;2.63;2.43;;;11.50;99.90;;;;;;4956970;29;20425;-68
2023/06/03 01:32:38;;;;;;;3.47;2.47;;;11.50;99.90;;;;;;4956576;28;20476;-67
2023/06/03 01:35:06;;;;;;;3.80;2.67;;;11.40;99.90;;;;;;4956811;29;20456;-68
2023/06/03 01:37:32;;;;;;;3.27;1.93;;;11.40;99.90;;;;;;4956783;29;20428;-67
2023/06/03 01:40:00;;;;;;;4.40;2.63;;;11.40;99.90;;;;;;4956601;29;20744;-68
2023/06/03 01:42:26;;;;;;;2.77;2.57;;;11.30;99.90;;;;;;4956239;28;20457;-68
2023/06/03 01:44:53;;;;;;;4.80;2.63;;;11.30;99.90;;;;;;4956587;29;20904;-68
2023/06/03 01:47:19;;;;;;;2.93;2.10;;;11.30;99.90;;;;;;4956802;29;20174;-68
2023/06/03 01:49:45;;;;;;;3.83;3.10;;;11.30;99.90;;;;;;4956507;29;20418;-67
2023/06/03 01:52:10;;;;;;;4.50;2.70;;;11.20;99.90;;;;;;4938970;29;20496;-68
2023/06/03 01:54:36;;;;;;;4.57;3.20;;;11.20;99.90;;;;;;4956195;29;20456;-67
2023/06/03 01:57:02;;;;;;;4.40;2.77;;;11.20;99.90;;;;;;4956421;29;20170;-68
2023/06/03 01:59:27;;;;;;;5.23;2.47;;;11.20;99.90;;;;;;4956341;29;20177;-68
2023/06/03 02:01:57;;;;;;;3.10;2.63;;;11.20;99.90;;;;;;4956034;28;20205;-67
2023/06/03 02:04:24;;;;;;;7.37;2.80;;;11.20;99.90;;;;;;4956372;29;20174;-68
2023/06/03 02:06:53;;;;;;;3.17;2.40;;;11.10;99.90;;;;;;4956155;29;20410;-68
2023/06/03 02:09:24;;;;;;;6.10;2.50;;;11.20;99.90;;;;;;4956366;29;20888;-68
2023/06/03 02:11:57;;;;;;;3.40;2.50;;;11.10;99.90;;;;;;4955914;28;20429;-68
2023/06/03 02:14:24;;;;;;;2.50;2.00;;;11.10;99.90;;;;;;4955874;29;20465;-67
2023/06/03 02:16:50;;;;;;;3.83;3.00;;;11.10;99.90;;;;;;4956046;29;20428;-68
2023/06/03 02:19:17;;;;;;;3.27;2.00;;;11.10;99.90;;;;;;4955927;29;20410;-67
2023/06/03 02:21:43;;;;;;;2.50;2.30;;;11.00;99.90;;;;;;4955642;28;20714;-67
2023/06/03 02:24:09;;;;;;;5.33;3.43;;;11.10;99.90;;;;;;4955830;29;20811;-67
2023/06/03 02:26:36;;;;;;;3.20;2.40;;;11.00;99.90;;;;;;4955939;29;20425;-67
2023/06/03 02:29:02;;;;;;;4.20;3.20;;;11.00;99.90;;;;;;4955682;29;20174;-67
2023/06/03 02:31:28;;;;;;;4.17;2.50;;;11.00;99.90;;;;;;4955499;28;20484;-67
2023/06/03 02:33:54;;;;;;;4.53;2.60;;;10.90;99.90;;;;;;4955374;28;21035;-68
2023/06/03 02:36:19;;;;;;;2.93;2.60;;;10.90;99.90;;;;;;4955565;29;20416;-68
2023/06/03 02:38:47;;;;;;;2.40;2.20;;;10.90;99.90;;;;;;4955538;29;20572;-67
2023/06/03 02:41:13;;;;;;;2.43;2.10;;;10.90;99.90;;;;;;4955307;28;20528;-67
2023/06/03 02:43:40;;;;;;;2.80;2.07;;;10.90;99.90;;;;;;4955618;29;20409;-68
2023/06/03 02:46:05;;;;;;;2.60;2.23;;;10.80;99.90;;;;;;4955451;29;20399;-68
2023/06/03 02:48:31;;;;;;;4.70;2.70;;;10.80;99.90;;;;;;4955418;29;20410;-68
2023/06/03 02:50:56;;;;;;;5.40;3.40;;;10.80;99.90;;;;;;4954990;28;20174;-68
2023/06/03 02:53:22;;;;;;;6.30;4.17;;;10.80;99.90;;;;;;4955385;29;20177;-67
2023/06/03 02:55:47;;;;;;;4.70;3.90;;;10.80;99.90;;;;;;4955209;29;20198;-68
2023/06/03 02:58:15;;;;;;;8.70;4.03;;;10.70;99.90;;;;;;4955334;29;20225;-67
2023/06/03 03:00:41;;;;;;;4.83;3.07;;;10.70;99.90;;;;;;4955041;29;20177;-68
2023/06/03 03:03:06;;;;;;;3.80;3.50;;;10.70;99.90;;;;;;4955145;28;20430;-68
2023/06/03 03:05:32;;;;;;;3.40;2.40;;;10.70;99.90;;;;;;4955074;29;20540;-68
2023/06/03 03:07:58;;;;;;;3.27;2.57;;;10.70;99.90;;;;;;4955060;29;20202;-68
2023/06/03 03:10:25;;;;;;;3.90;2.80;;;10.70;99.90;;;;;;4954829;29;20174;-68
2023/06/03 03:12:50;;;;;;;2.83;2.50;;;10.70;99.90;;;;;;4955040;28;20488;-67
2023/06/03 03:15:16;;;;;;;5.30;2.60;;;10.70;99.90;;;;;;4954720;29;20958;-67
2023/06/03 03:17:41;;;;;;;2.67;2.47;;;10.70;99.90;;;;;;4954925;29;20201;-67
2023/06/03 03:20:08;;;;;;;2.23;2.03;;;10.70;99.90;;;;;;4954884;29;20174;-67
2023/06/03 03:22:34;;;;;;;4.40;2.57;;;10.70;99.90;;;;;;4954515;28;20241;-68
2023/06/03 03:25:00;;;;;;;6.13;3.37;;;10.70;99.90;;;;;;4954818;29;20816;-67
2023/06/03 03:27:25;;;;;;;4.30;3.00;;;10.70;99.90;;;;;;4954801;29;20509;-67
2023/06/03 03:29:53;;;;;;;2.70;2.50;;;10.70;99.90;;;;;;4954825;29;20186;-68
2023/06/03 03:32:20;;;;;;;5.60;2.97;;;10.70;99.90;;;;;;4954337;28;20197;-68
2023/06/03 03:34:53;;;;;;;6.47;2.73;;;10.70;99.90;;;;;;4954568;29;20461;-68
2023/06/03 03:37:18;;;;;;;4.10;2.20;;;10.70;99.90;;;;;;4954616;29;20412;-68
2023/06/03 03:39:44;;;;;;;4.80;2.63;;;10.70;99.90;;;;;;4954615;29;20796;-68
2023/06/03 03:42:10;;;;;;;3.30;2.23;;;10.70;99.90;;;;;;4954137;28;20628;-67
2023/06/03 03:44:35;;;;;;;2.70;2.20;;;10.70;99.90;;;;;;4953825;28;20541;-67
2023/06/03 03:47:01;;;;;;;4.07;2.40;;;10.70;99.90;;;;;;4954413;29;20175;-67
2023/06/03 03:49:34;;;;;;;9.83;5.13;;;10.70;99.90;;;;;;4954482;29;20178;-68
2023/06/03 03:52:04;;;;;;;8.50;3.90;;;10.70;99.90;;;;;;4953942;28;20561;-68
2023/06/03 03:54:30;;;;;;;5.87;3.80;;;10.70;99.90;;;;;;4954331;29;20465;-68
2023/06/03 03:56:56;;;;;;;4.13;3.60;;;10.80;99.90;;;;;;4954173;29;20406;-68
2023/06/03 03:59:25;;;;;;;4.67;2.97;;;10.80;99.90;;;;;;4954296;29;20536;-68
2023/06/03 04:01:51;;;;;;;5.90;2.67;;;10.80;99.90;;;;;;4953807;28;20432;-68
2023/06/03 04:04:42;;;;;;;4.43;2.43;;;10.90;99.90;;;;;;4954249;29;20504;-67
2023/06/03 04:07:11;;;;;;;3.70;3.20;;;10.90;99.90;;;;;;4953961;29;20418;-67
2023/06/03 04:09:38;;;;;;;4.07;2.47;;;11.00;99.90;;;;;;4954132;29;20410;-68
2023/06/03 04:12:08;;;;;;;6.27;2.50;;;11.00;99.90;;;;;;4953568;28;20421;-67
2023/06/03 04:14:48;;;;;;;1.90;1.67;;;11.10;99.90;;;;;;4936729;29;20473;-67
2023/06/03 04:17:20;;;;;;;2.17;1.93;;;11.10;99.90;;;;;;4954007;29;20429;-67
2023/06/03 04:19:47;;;;;;;5.13;2.80;;;11.20;99.90;;;;;;4953455;29;20410;-67
2023/06/03 04:22:18;;;;;;;3.90;2.20;;;11.30;99.90;;;;;;4953604;28;20976;-67
2023/06/03 04:24:43;;;;;;;2.23;2.03;;;11.40;99.90;;;;;;4954009;29;20907;-67
2023/06/03 04:27:09;;;;;;;2.70;1.97;;;11.40;99.90;;;;;;4954006;29;20417;-67
2023/06/03 04:29:34;;;;;;;4.63;2.80;;;11.50;99.90;;;;;;4953925;29;20197;-68
2023/06/03 04:32:00;;;;;;;5.33;3.27;;;11.60;99.90;;;;;;4953497;28;20667;-68
2023/06/03 04:34:30;;;;;;;5.20;2.27;;;11.70;99.90;;;;;;4953884;29;20277;-68
2023/06/03 04:36:55;;;;;;;4.50;2.00;;;11.80;99.90;;;;;;4953763;29;20178;-68
2023/06/03 04:39:21;;;;;;;3.80;1.80;;;11.90;99.90;;;;;;4953841;29;20957;-68
2023/06/03 04:41:46;;;;;;;3.67;2.37;;;12.00;99.90;;;;;;4953514;28;20244;-67
2023/06/03 04:44:13;;;;;;;2.33;2.10;;;12.10;99.90;;;;;;4953742;29;20182;-68
2023/06/03 04:46:39;;;;;;;1.97;1.80;;;12.20;99.90;;;;;;4953850;29;20627;-68
2023/06/03 04:49:08;;;;;;;2.00;1.77;;;12.30;99.90;;;;;;4953847;29;20808;-67
2023/06/03 04:51:34;;;;;;;2.27;1.77;;;12.40;99.90;;;;;;4953435;28;20504;-68
2023/06/03 04:54:00;;;;;;;3.33;2.17;;;12.50;99.90;;;;;;4953620;29;20480;-68
2023/06/03 04:56:29;;;;;;;5.93;2.77;;;12.60;99.90;;;;;;4955056;28;20414;-68
2023/06/03 04:58:56;;;;;;;2.10;2.00;;;12.70;99.90;;;;;;4957312;29;20505;-68
2023/06/03 05:01:25;;;;;;;2.73;1.80;;;12.80;99.90;;;;;;4957122;28;20906;-68
2023/06/03 05:03:54;;;;;;;2.30;1.97;;;12.90;99.90;;;;;;4957429;29;20418;-68
2023/06/03 05:06:20;;;;;;;3.27;2.20;;;13.00;99.90;;;;;;4957305;29;20930;-67
2023/06/03 05:08:50;;;;;;;3.13;2.10;;;13.10;99.90;;;;;;4957253;29;20418;-68
2023/06/03 05:11:16;;;;;;;2.10;1.70;;;13.20;99.90;;;;;;4956941;28;20851;-68
2023/06/03 05:13:42;;;;;;;1.80;1.60;;;13.40;99.90;;;;;;4957063;29;20430;-68
2023/06/03 05:16:07;;;;;;;1.73;1.53;;;13.50;99.90;;;;;;4957119;29;20409;-68
2023/06/03 05:18:35;;;;;;;2.30;2.10;;;13.70;99.90;;;;;;4940007;29;20185;-68
2023/06/03 05:21:01;;;;;;;2.07;1.80;;;13.80;99.90;;;;;;4956623;28;20174;-68
2023/06/03 05:23:26;;;;;;;2.20;1.70;;;13.90;99.90;;;;;;4957070;29;20406;-68
2023/06/03 05:25:52;;;;;;;2.07;1.87;;;14.10;99.90;;;;;;4957122;29;20182;-68
2023/06/03 05:28:17;;;;;;;1.40;1.30;;;14.20;99.90;;;;;;4957219;29;20578;-68
2023/06/03 05:30:43;;;;;;;3.67;1.97;;;14.40;99.90;;;;;;4956622;29;20167;-68
2023/06/03 05:33:08;;;;;;;1.93;1.57;;;14.60;99.90;;;;;;4956795;28;20190;-68
2023/06/03 05:35:34;;;;;;;3.43;1.40;;;14.80;99.90;;;;;;4956554;29;20256;-68
2023/06/03 05:37:59;;;;;;;3.37;1.70;;;15.00;99.90;;;;;;4956847;29;20249;-68
2023/06/03 05:40:25;;;;;;;1.40;1.30;;;15.10;99.90;;;;;;4956485;29;20276;-68
2023/06/03 05:42:50;;;;;;;1.77;1.40;;;15.20;99.90;;;;;;4956905;28;20591;-68
2023/06/03 05:45:16;;;;;;;2.17;1.47;;;15.40;99.90;;;;;;4956603;29;20197;-68
2023/06/03 05:47:41;;;;;;;1.83;1.10;;;15.70;99.90;;;;;;4956745;29;20170;-68
2023/06/03 05:50:07;;;;;;;1.93;1.60;;;16.10;99.90;;;;;;4956425;29;20185;-68
2023/06/03 05:52:33;;;;;;;3.63;1.77;;;16.40;99.90;;;;;;4956210;28;20193;-69
2023/06/03 05:54:58;;;;;;;1.97;1.43;;;16.80;99.90;;;;;;4956489;29;20730;-69
2023/06/03 05:57:24;;;;;;;1.80;1.67;;;17.00;99.90;;;;;;4956309;29;20171;-69
2023/06/03 05:59:51;;;;;;;2.27;1.60;;;17.30;99.90;;;;;;4956395;29;20166;-68
2023/06/03 06:02:20;;;;;;;2.47;1.20;;;17.70;99.90;;;;;;4938601;29;20195;-69
2023/06/03 06:04:46;;;;;;;7.30;1.37;;;18.50;99.90;;;;;;4956185;29;20421;-68
2023/06/03 06:07:12;;;;;;;2.47;1.07;;;19.30;98.60;;;;;;4955982;28;20407;-69
2023/06/03 06:09:37;;;;;;;3.73;1.33;;;20.30;92.20;;;;;;4955679;29;20511;-69
2023/06/03 06:12:03;;;;;;;1.43;1.33;;;21.10;82.40;;;;;;4955779;28;20190;-69
2023/06/03 06:14:29;;;;;;;2.30;1.63;;;22.10;72.90;;;;;;4955990;29;20675;-69
2023/06/03 06:16:55;;;;;;;2.43;1.23;;;22.90;61.40;;;;;;4955984;29;21055;-69
2023/06/03 06:19:21;;;;;;;1.57;1.33;;;23.70;58.80;;;;;;4955977;29;20163;-69
2023/06/03 06:21:47;;;;;;;2.03;1.50;;;24.50;53.10;;;;;;4955451;28;20677;-69
2023/06/03 06:24:13;;;;;;;1.37;1.27;;;25.30;51.40;;;;;;4955797;29;20414;-70
2023/06/03 06:26:40;;;;;;;1.43;1.30;;;26.00;49.60;;;;;;4955848;29;20177;-69
2023/06/03 06:29:06;;;;;;;1.43;1.10;;;26.60;46.00;;;;;;4955877;29;21073;-69
2023/06/03 06:31:32;;;;;;;1.37;1.20;;;27.00;42.90;;;;;;4955363;28;20461;-69
2023/06/03 06:34:01;;;;;;;1.30;1.20;;;27.70;42.50;;;;;;4955656;29;20201;-69
2023/06/03 06:36:37;;;;;;;2.67;1.60;;;28.00;39.70;;;;;;4955696;29;20188;-69
2023/06/03 06:39:04;;;;;;;5.40;1.40;;;28.50;37.50;;;;;;4955759;29;20405;-67
2023/06/03 06:41:36;;;;;;;4.03;1.30;;;28.80;35.00;;;;;;4938100;29;20437;-67
2023/06/03 06:44:02;;;;;;;1.77;1.40;;;29.40;35.50;;;;;;4955614;29;20529;-68
2023/06/03 06:46:35;;;;;;;2.00;1.83;;;30.00;35.80;;;;;;4955491;29;20414;-68
2023/06/03 06:49:02;;;;;;;1.57;1.47;;;30.60;33.80;;;;;;4955367;29;20414;-68
2023/06/03 06:51:29;;;;;;;2.07;1.53;;;31.30;33.30;;;;;;4955040;28;20520;-67
2023/06/03 06:53:59;;;;;;;3.37;1.70;;;31.90;32.00;;;;;;4955223;29;20398;-69
2023/06/03 06:56:25;;;;;;;2.13;1.50;;;32.20;30.60;;;;;;4955375;29;20773;-68
2023/06/03 06:58:51;;;;;;;1.53;1.27;;;32.40;29.10;;;;;;4955138;29;20445;-68
2023/06/03 07:01:16;;;;;;;1.67;1.30;;;32.90;29.80;;;;;;4954905;28;20458;-68
2023/06/03 07:03:42;;;;;;;2.27;2.07;;;33.50;29.60;;;;;;4955104;29;20225;-68
2023/06/03 07:06:08;;;;;;;1.30;1.20;;;34.00;28.30;;;;;;4955170;29;20166;-68
2023/06/03 07:08:33;;;;;;;2.60;1.53;;;34.60;28.20;;;;;;4955113;29;20174;-68
2023/06/03 07:11:02;;;;;;;1.77;1.30;;;34.60;25.90;;;;;;4954694;28;20588;-68
2023/06/03 07:13:27;;;;;;;1.50;1.40;;;35.30;26.80;;;;;;4954693;29;20166;-69
2023/06/03 07:15:53;;;;;;;2.07;1.50;;;36.00;26.40;;;;;;4954862;29;20463;-68
2023/06/03 07:18:21;;;;;;;1.57;1.30;;;36.70;26.10;;;;;;4954899;29;20301;-69
2023/06/03 07:20:48;;;;;;;3.00;1.53;;;37.20;24.90;;;;;;4953153;28;20163;-68
2023/06/03 07:23:20;;;;;;;1.70;1.60;;;37.50;23.60;;;;;;4954875;29;21187;-68
2023/06/03 07:25:47;;;;;;;1.87;1.77;;;37.90;23.30;;;;;;4937558;29;20427;-69
2023/06/03 07:28:14;;;;;;;2.33;1.40;;;38.60;23.90;;;;;;4954784;29;20414;-69
2023/06/03 07:30:42;;;;;;;2.20;1.90;;;39.30;23.20;;;;;;4954442;29;20410;-68
2023/06/03 07:33:21;;;;;;;1.73;1.60;;;40.00;23.10;;;;;;4954589;28;20434;-69
2023/06/03 07:35:52;;;;;;;1.50;1.40;;;40.80;22.60;;;;;;4954555;29;20481;-69
2023/06/03 07:38:37;;;;;;;1.83;1.63;;;41.50;21.40;;;;;;4954615;29;20380;-70
2023/06/03 07:41:04;;;;;;;2.03;1.80;;;42.20;21.30;;;;;;4954228;28;20377;-70
2023/06/03 07:43:30;;;;;;;1.63;1.53;;;42.90;20.80;;;;;;4954425;29;20438;-70
2023/06/03 07:45:55;;;;;;;1.60;1.50;;;43.50;20.20;;;;;;4954439;29;20472;-69
2023/06/03 07:48:22;;;;;;;2.20;2.00;;;44.00;19.70;;;;;;4954311;29;20189;-69
2023/06/03 07:50:47;;;;;;;2.80;1.70;;;44.60;19.50;;;;;;4954062;28;20162;-70
2023/06/03 07:53:22;;;;;;;2.57;2.37;;;45.10;19.50;;;;;;4954300;29;20444;-70
2023/06/03 07:55:48;;;;;;;3.73;1.90;;;45.80;19.30;;;;;;4954327;29;20280;-70
2023/06/03 07:58:15;;;;;;;2.50;2.20;;;46.30;18.70;;;;;;4954329;29;20376;-70
2023/06/03 08:00:45;;;;;;;1.90;1.60;;;47.00;18.80;;;;;;4936797;29;20818;-71
2023/06/03 08:03:18;;;;;;;1.87;1.77;;;47.70;18.20;;;;;;4954017;28;20426;-70
2023/06/03 08:05:47;;;;;;;2.03;1.83;;;48.20;18.10;;;;;;4954236;29;20416;-70
2023/06/03 08:08:14;;;;;;;2.43;2.23;;;48.80;17.80;;;;;;4954093;29;20381;-71
2023/06/03 08:10:42;;;;;;;2.30;2.10;;;49.20;17.50;;;;;;4953898;29;20384;-70
2023/06/03 08:13:07;;;;;;;4.10;2.10;;;49.80;17.20;;;;;;4954037;28;20905;-70
2023/06/03 08:15:35;;;;;;;2.37;2.27;;;50.20;16.70;;;;;;4953842;29;20435;-70
2023/06/03 08:18:05;;;;;;;7.83;2.00;;;50.40;16.10;;;;;;4954042;29;20194;-70
2023/06/03 08:20:33;;;;;;;2.37;2.17;;;50.50;16.00;;;;;;4953776;29;20485;-70
2023/06/03 08:22:58;;;;;;;2.50;2.30;;;50.70;16.00;;;;;;4953986;28;20417;-71
2023/06/03 08:25:24;;;;;;;2.17;2.07;;;51.00;16.00;;;;;;4953907;29;20837;-71
2023/06/03 08:27:50;;;;;;;2.27;2.17;;;51.50;16.20;;;;;;4954073;29;20634;-70
2023/06/03 08:30:17;;;;;;;2.20;2.10;;;51.70;15.50;;;;;;4953850;28;20166;-70
2023/06/03 08:32:43;;;;;;;2.70;2.50;;;51.90;15.00;;;;;;4957166;28;20871;-70
2023/06/03 08:35:10;;;;;;;2.60;2.40;;;52.30;15.50;;;;;;4957933;29;20453;-71
2023/06/03 08:37:37;;;;;;;3.23;3.03;;;52.50;15.40;;;;;;4958058;29;20410;-71
2023/06/03 08:40:08;;;;;;;2.67;2.50;;;52.80;15.10;;;;;;4958138;29;20989;-72
2023/06/03 08:42:42;;;;;;;3.40;2.53;;;53.10;15.20;;;;;;4957549;28;20771;-71
2023/06/03 08:45:09;;;;;;;2.57;2.40;;;53.00;14.40;;;;;;4957597;29;20453;-70
2023/06/03 08:47:36;;;;;;;2.63;2.43;;;53.10;14.60;;;;;;4957720;29;20492;-70
2023/06/03 08:50:06;;;;;;;3.40;2.90;;;53.10;14.70;;;;;;4957718;29;20971;-70
2023/06/03 08:52:37;;;;;;;2.67;2.47;;;53.40;14.80;;;;;;4957337;28;20421;-71
2023/06/03 08:55:05;;;;;;;2.43;2.20;;;52.70;14.00;;;;;;4957649;29;20406;-70
2023/06/03 08:57:53;;;;;;;2.43;2.23;;;51.20;13.40;;;;;;4940334;29;20760;-70
2023/06/03 09:00:23;;;;;;;2.43;2.33;;;51.10;14.60;;;;;;4957505;29;20410;-71
2023/06/03 09:02:51;;;;;;;4.27;2.43;;;51.00;14.80;;;;;;4957425;28;20426;-71
2023/06/03 09:05:17;;;;;;;2.43;2.30;;;51.30;15.00;;;;;;4957426;29;20807;-70
2023/06/03 09:07:45;;;;;;;2.73;2.53;;;51.80;14.50;;;;;;4957343;29;20417;-69
2023/06/03 09:10:11;;;;;;;2.07;1.97;;;51.40;14.10;;;;;;4957347;29;20178;-70
2023/06/03 09:12:38;;;;;;;2.60;2.50;;;51.50;14.20;;;;;;4956961;28;20433;-70
2023/06/03 09:15:04;;;;;;;2.73;2.53;;;51.50;14.60;;;;;;4957105;29;20429;-70
2023/06/03 09:17:30;;;;;;;2.50;2.40;;;50.90;14.00;;;;;;4957184;29;20402;-70
2023/06/03 09:20:01;;;;;;;4.33;2.27;;;51.20;14.50;;;;;;4957173;29;20413;-70
2023/06/03 09:22:28;;;;;;;2.80;2.60;;;51.30;14.40;;;;;;4956455;28;20408;-71
2023/06/03 09:24:53;;;;;;;3.23;3.03;;;51.40;14.60;;;;;;4957024;29;20516;-70
2023/06/03 09:27:19;;;;;;;3.87;2.37;;;51.60;14.50;;;;;;4940989;28;20457;-71
2023/06/03 09:29:45;;;;;;;2.50;2.30;;;51.90;14.50;;;;;;4937825;29;20228;-71
2023/06/03 09:32:10;;;;;;;2.57;2.37;;;52.40;14.30;;;;;;4937185;29;20191;-71
2023/06/03 09:34:36;;;;;;;3.10;2.90;;;52.50;13.90;;;;;;4937912;29;20167;-71
2023/06/03 09:37:09;;;;;;;2.20;2.10;;;52.80;14.30;;;;;;4937260;29;20183;-72
2023/06/03 09:39:35;;;;;;;2.90;2.60;;;53.20;14.70;;;;;;4937509;29;20397;-70
2023/06/03 09:42:01;;;;;;;2.43;2.33;;;53.30;13.90;;;;;;4936812;29;20434;-72
2023/06/03 09:44:41;;;;;;;3.20;2.97;;;53.00;14.10;;;;;;4936648;29;20809;-71
2023/06/03 09:47:07;;;;;;;3.07;2.77;;;53.10;13.80;;;;;;4942066;29;20170;-71
2023/06/03 09:49:32;;;;;;;2.50;2.40;;;53.30;13.90;;;;;;4937355;29;20409;-72
2023/06/03 09:51:58;;;;;;;2.50;2.40;;;53.20;13.90;;;;;;4932944;28;20202;-72
2023/06/03 09:54:24;;;;;;;2.93;2.60;;;51.90;12.90;;;;;;4948447;28;20201;-70
2023/06/03 09:56:51;;;;;;;2.60;2.40;;;50.10;13.10;;;;;;4953423;28;20649;-70
2023/06/03 09:59:30;;;;;;;2.10;1.90;;;49.00;14.40;;;;;;4953715;29;20170;-71
2023/06/03 10:01:55;;;;;;;2.63;2.20;;;48.80;14.70;;;;;;4921445;29;20462;-70
2023/06/03 10:04:41;;;;;;;2.30;2.20;;;48.40;15.60;;;;;;4930500;28;20806;-71
2023/06/03 10:07:16;;;;;;;2.23;2.10;;;49.10;15.00;;;;;;4953945;28;20290;-71
2023/06/03 10:09:46;;;;;;;2.70;2.50;;;49.20;14.50;;;;;;4956088;29;20478;-72
2023/06/03 10:12:13;;;;;;;3.07;2.80;;;50.20;15.20;;;;;;4944248;29;20442;-70
2023/06/03 10:14:46;;;;;;;2.60;2.40;;;50.80;14.80;;;;;;4936682;29;20766;-70
2023/06/03 10:17:13;;;;;;;2.43;2.33;;;51.10;14.60;;;;;;4936854;29;20423;-70
2023/06/03 10:19:41;;;;;;;2.17;2.07;;;51.50;14.10;;;;;;4936758;29;20377;-71
2023/06/03 10:22:08;;;;;;;2.27;1.97;;;51.60;13.90;;;;;;4936441;29;20544;-71
2023/06/03 10:24:38;;;;;;;2.60;2.40;;;52.30;14.40;;;;;;4936676;29;21128;-70
2023/06/03 10:27:04;;;;;;;2.37;2.27;;;53.10;14.30;;;;;;4936465;29;20423;-70
2023/06/03 10:29:32;;;;;;;2.90;2.70;;;53.70;14.40;;;;;;4942889;29;20532;-71
2023/06/03 10:32:00;;;;;;;2.60;2.40;;;54.10;14.10;;;;;;4946797;28;20438;-69
2023/06/03 10:34:28;;;;;;;5.10;3.47;;;54.30;13.40;;;;;;4936584;29;20750;-71
2023/06/03 10:36:57;;;;;;;3.93;3.63;;;53.80;12.70;;;;;;4936312;29;20494;-70
2023/06/03 10:39:25;;;;;;;3.03;2.83;;;53.70;13.40;;;;;;4936405;29;20417;-71
2023/06/03 10:41:54;;;;;;;2.83;2.67;;;54.20;13.60;;;;;;4936062;29;20434;-71
2023/06/03 10:44:19;;;;;;;3.20;3.00;;;54.70;13.80;;;;;;4936212;29;20445;-70
2023/06/03 10:46:53;;;;;;;3.57;3.00;;;54.90;13.70;;;;;;4936039;29;20904;-69
2023/06/03 10:49:21;;;;;;;2.60;2.40;;;54.30;13.30;;;;;;4936391;29;20250;-70
2023/06/03 10:52:08;;;;;;;2.90;2.70;;;54.40;13.30;;;;;;4935912;29;20430;-70
2023/06/03 10:54:51;;;;;;;2.40;2.30;;;54.20;13.90;;;;;;4936100;29;20407;-70
2023/06/03 10:57:20;;;;;;;2.60;2.43;;;54.00;13.50;;;;;;4936197;29;20407;-71
2023/06/03 10:59:46;;;;;;;3.10;2.90;;;54.50;14.10;;;;;;4936281;29;20497;-71
2023/06/03 11:02:13;;;;;;;4.20;3.00;;;55.00;13.40;;;;;;4935798;29;20999;-71
2023/06/03 11:04:39;;;;;;;3.23;3.03;;;55.00;13.20;;;;;;4935873;29;20434;-70
2023/06/03 11:07:25;;;;;;;2.53;2.33;;;54.80;12.60;;;;;;4936079;29;20947;-69
2023/06/03 11:09:51;;;;;;;2.90;2.70;;;53.90;13.20;;;;;;4936170;29;20900;-69
2023/06/03 11:12:16;;;;;;;3.60;3.30;;;54.20;13.20;;;;;;4935646;29;20515;-71
2023/06/03 11:14:50;;;;;;;2.63;2.43;;;54.40;13.60;;;;;;4937067;29;20190;-69
2023/06/03 11:17:18;;;;;;;3.13;2.77;;;54.70;13.60;;;;;;4955052;29;20174;-69
2023/06/03 11:19:49;;;;;;;2.70;2.27;;;55.30;14.00;;;;;;4937691;29;20445;-69
2023/06/03 11:22:27;;;;;;;3.60;3.40;;;55.80;13.60;;;;;;4937378;29;20445;-68
2023/06/03 11:24:59;;;;;;;3.27;3.07;;;55.80;13.30;;;;;;4954727;29;20543;-71
2023/06/03 11:27:26;;;;;;;2.50;2.30;;;55.70;13.80;;;;;;4954875;29;20402;-70
2023/06/03 11:30:00;;;;;;;3.00;2.80;;;55.90;13.10;;;;;;4954798;29;20409;-70
2023/06/03 11:32:32;;;;;;;2.87;2.70;;;56.00;13.30;;;;;;4954445;28;20520;-72
2023/06/03 11:35:03;;;;;;;2.77;2.57;;;56.10;13.50;;;;;;4954455;29;20454;-71
2023/06/03 11:37:41;;;;;;;3.27;3.07;;;56.30;13.40;;;;;;4954614;29;20402;-71
2023/06/03 11:40:20;;;;;;;2.63;2.53;;;56.20;13.10;;;;;;4954575;29;20413;-71
2023/06/03 11:42:51;;;;;;;3.07;2.87;;;56.20;13.20;;;;;;4954339;28;20517;-70
2023/06/03 11:45:17;;;;;;;2.83;2.63;;;56.20;13.10;;;;;;4937214;29;20453;-70
2023/06/03 11:47:52;;;;;;;3.20;2.80;;;56.30;13.10;;;;;;4954444;29;20483;-70
2023/06/03 11:50:19;;;;;;;2.80;2.60;;;56.50;13.30;;;;;;4954395;29;20161;-69
2023/06/03 11:52:44;;;;;;;2.97;2.67;;;56.60;13.10;;;;;;4953829;28;20500;-70
2023/06/03 11:55:10;;;;;;;3.50;3.20;;;56.70;13.20;;;;;;4954481;29;20501;-71
2023/06/03 11:57:37;;;;;;;3.10;2.90;;;56.80;13.40;;;;;;4954369;29;20173;-72
2023/06/03 12:00:09;;;;;;;3.33;3.13;;;56.90;13.20;;;;;;4954369;29;20201;-71
2023/06/03 12:02:45;;;;;;;3.00;2.90;;;57.20;13.30;;;;;;4954082;28;20945;-71
2023/06/03 12:05:19;;;;;;;3.73;3.53;;;57.00;12.90;;;;;;4953956;28;20429;-70
2023/06/03 12:07:59;;;;;;;3.70;3.40;;;56.90;13.00;;;;;;4952751;29;20432;-70
2023/06/03 12:10:25;;;;;;;3.50;2.63;;;56.60;12.80;;;;;;4953787;29;20445;-70
2023/06/03 12:13:01;;;;;;;3.33;2.80;;;56.60;12.90;;;;;;4953993;28;20472;-73
2023/06/03 12:15:26;;;;;;;2.70;2.60;;;56.50;13.00;;;;;;4936769;29;20189;-71
2023/06/03 12:17:53;;;;;;;3.10;2.90;;;55.60;12.40;;;;;;4954158;29;20421;-71
2023/06/03 12:20:28;;;;;;;2.60;2.30;;;55.20;12.60;;;;;;4954056;29;20166;-71
2023/06/03 12:23:06;;;;;;;2.67;2.40;;;55.10;13.30;;;;;;4953970;28;20455;-72
2023/06/03 12:25:36;;;;;;;3.00;2.43;;;55.10;13.00;;;;;;4952771;29;20444;-71
2023/06/03 12:28:25;;;;;;;2.67;2.47;;;54.90;13.30;;;;;;4953928;29;20410;-71
2023/06/03 12:30:50;;;;;;;2.73;2.53;;;54.80;13.40;;;;;;4936418;28;20787;-70
2023/06/03 12:33:17;;;;;;;2.80;2.60;;;54.70;13.20;;;;;;4953842;29;20405;-70
2023/06/03 12:35:54;;;;;;;3.10;2.90;;;54.70;13.30;;;;;;4953619;29;20644;-70
2023/06/03 12:38:21;;;;;;;2.50;2.30;;;54.60;13.60;;;;;;4953819;29;20432;-70
2023/06/03 12:40:46;;;;;;;7.07;6.47;;;54.60;13.50;;;;;;4953462;29;20406;-71
2023/06/03 12:43:21;;;;;;;2.83;2.63;;;54.60;13.70;;;;;;4953703;28;20426;-71
2023/06/03 12:45:47;;;;;;;2.57;2.37;;;54.70;13.50;;;;;;4953794;29;20197;-70
2023/06/03 12:48:31;;;;;;;3.43;3.23;;;54.70;13.30;;;;;;4953767;29;20428;-69
2023/06/03 12:50:57;;;;;;;2.43;2.30;;;54.60;13.00;;;;;;4953390;28;20241;-70
2023/06/03 12:53:23;;;;;;;2.27;2.17;;;54.50;13.30;;;;;;4953800;29;20459;-70